Data for 10/23/2006

Time Sea-Level Adjusted Pressure Absolute Pressure Temperature Relative Humidity Dew Point   
(mb) (inHg) (mb) (inHg) (C) (F) (%) (C) (F)
00:05 1021 30.15 850 25.1 1.3 34.3 77 -2.3 27.9
00:10 1021 30.15 850 25.1 1 33.8 79 -2.3 27.9
00:15 1021 30.15 850 25.1 0.8 33.5 80 -2.3 27.9
00:20 1021 30.15 850 25.1 0.9 33.7 78 -2.5 27.6
00:25 1021 30.15 850 25.1 0.8 33.4 79 -2.5 27.5
00:30 1021 30.15 850 25.1 0.8 33.4 80 -2.4 27.8
00:35 1021 30.15 850 25.1 0.6 33 80 -2.5 27.5
00:40 1021 30.15 850 25.1 0.6 33.1 80 -2.5 27.5
00:45 1021 30.15 850 25.1 0.5 33 80 -2.5 27.6
00:50 1021 30.15 850 25.1 0.6 33.1 79 -2.6 27.4
00:55 1021 30.15 850 25.1 0.6 33 80 -2.5 27.6
01:00 1021 30.15 850 25.1 0.3 32.5 81 -2.5 27.4
01:05 1021 30.15 850 25.1 -0.1 31.9 83 -2.7 27.2
01:10 1021 30.15 850 25.1 -0.1 31.7 82 -2.8 26.9
01:15 1021 30.15 850 25.1 0.1 32.2 80 -3 26.6
01:20 1021 30.15 850 25.1 0.4 32.7 78 -2.9 26.7
01:25 1021 30.15 850 25.1 0.5 32.9 79 -2.8 27
01:30 1021 30.15 850 25.1 0.4 32.7 79 -2.8 26.9
01:35 1021 30.15 850 25.1 0.2 32.3 80 -2.8 26.9
01:40 1021 30.15 850 25.1 0 32.1 81 -2.9 26.8
01:45 1021 30.15 850 25.1 -0.2 31.7 82 -2.9 26.8
01:50 1020 30.12 850 25.1 -0.1 31.9 80 -3.1 26.4
01:55 1021 30.15 850 25.1 -0 31.9 81 -3 26.6
02:00 1021 30.15 850 25.1 0.2 32.4 79 -3 26.6
02:05 1021 30.15 850 25.1 0.4 32.7 78 -2.9 26.7
02:10 1021 30.15 850 25.1 0.5 32.9 78 -2.9 26.8
02:15 1021 30.15 850 25.1 0.4 32.7 79 -2.9 26.8
02:20 1021 30.15 850 25.1 0.3 32.5 79 -2.9 26.7
02:25 1021 30.15 850 25.1 0.1 32.1 79 -3.2 26.3
02:30 1021 30.15 850 25.1 0.5 32.8 77 -3.1 26.4
02:35 1021 30.15 850 25.1 0.6 33.1 76 -3.1 26.4
02:40 1021 30.15 850 25.1 0.8 33.4 74 -3.2 26.2
02:45 1021 30.15 850 25.1 0.9 33.7 74 -3.2 26.2
02:50 1021 30.15 850 25.1 0.9 33.6 74 -3.3 26.1
02:55 1021 30.15 850 25.1 0.9 33.7 73 -3.3 26
03:00 1021 30.15 850 25.1 0.8 33.5 74 -3.2 26.2
03:05 1021 30.15 850 25.1 0.5 32.9 76 -3.2 26.2
03:10 1021 30.15 850 25.1 0.4 32.6 76 -3.4 25.9
03:15 1021 30.15 850 25.1 0.5 32.9 76 -3.3 26
03:20 1021 30.15 850 25.1 0.4 32.8 76 -3.3 26.1
03:25 1021 30.15 850 25.1 0.3 32.6 77 -3.2 26.2
03:30 1021 30.15 850 25.1 -0 32 78 -3.3 26
03:35 1021 30.15 850 25.1 -0.1 31.9 78 -3.5 25.7
03:40 1020 30.12 850 25.1 0.2 32.3 77 -3.4 25.8
03:45 1020 30.12 850 25.1 0.2 32.3 77 -3.4 25.8
03:50 1020 30.12 850 25.1 0.1 32.1 77 -3.5 25.7
03:55 1020 30.12 850 25.1 0.2 32.4 76 -3.6 25.6
04:00 1020 30.12 850 25.1 0.2 32.4 75 -3.7 25.4
04:05 1020 30.12 850 25.1 0.4 32.7 75 -3.4 25.8
04:10 1020 30.12 850 25.1 0.1 32.2 76 -3.6 25.5
04:15 1020 30.12 850 25.1 0.2 32.3 76 -3.6 25.5
04:20 1020 30.12 850 25.1 0.3 32.6 74 -3.7 25.3
04:25 1020 30.12 849 25.07 0.6 33 73 -3.7 25.3
04:30 1020 30.12 849 25.07 0.9 33.6 70 -3.9 25
04:35 1020 30.12 849 25.07 1.2 34.1 70 -3.8 25.2
04:40 1020 30.12 849 25.07 1.1 34 70 -3.7 25.3
04:45 1020 30.12 849 25.07 0.9 33.7 71 -3.7 25.4
04:50 1020 30.12 849 25.07 0.6 33.2 73 -3.6 25.4
04:55 1020 30.12 849 25.07 0.5 32.9 73 -3.7 25.3
05:00 1020 30.12 849 25.07 0.4 32.7 74 -3.7 25.3
05:05 1020 30.12 849 25.07 0.7 33.2 73 -3.6 25.6
05:10 1020 30.12 849 25.07 0.7 33.3 73 -3.5 25.7
05:15 1020 30.12 849 25.07 0.8 33.5 73 -3.6 25.6
05:20 1020 30.12 849 25.07 1.2 34.1 72 -3.4 25.9
05:25 1020 30.12 849 25.07 1.5 34.6 68 -3.7 25.3
05:30 1020 30.12 849 25.07 2 35.6 66 -3.7 25.4
05:35 1020 30.12 850 25.1 2.1 35.8 66 -3.7 25.4
05:40 1020 30.12 850 25.1 2.1 35.8 66 -3.7 25.3
05:45 1020 30.12 850 25.1 1.9 35.5 66 -3.8 25.2
05:50 1020 30.12 850 25.1 1.6 34.8 67 -4 24.9
05:55 1020 30.12 850 25.1 1.2 34.2 70 -3.7 25.4
06:00 1020 30.12 850 25.1 1.2 34.2 71 -3.4 25.8
06:05 1020 30.12 850 25.1 1.1 34.1 72 -3.4 26
06:10 1020 30.12 850 25.1 1.3 34.4 72 -3.2 26.3
06:15 1020 30.12 850 25.1 0.8 33.5 76 -3 26.6
06:20 1020 30.12 850 25.1 0.4 32.7 77 -3.2 26.3
06:25 1020 30.12 850 25.1 0.5 32.9 77 -3.1 26.4
06:30 1020 30.12 850 25.1 0.7 33.2 75 -3.3 26
06:35 1020 30.12 850 25.1 1.1 34 73 -3.2 26.2
06:40 1020 30.12 850 25.1 0.7 33.2 77 -3 26.6
06:45 1020 30.12 850 25.1 0.2 32.4 77 -3.4 26
06:50 1020 30.12 850 25.1 -0.1 31.9 77 -3.6 25.5
06:55 1020 30.12 850 25.1 -0.1 31.8 76 -3.8 25.2
07:00 1020 30.12 850 25.1 -0.1 31.9 76 -3.8 25.2
07:05 1020 30.12 850 25.1 -0.1 31.9 77 -3.7 25.4
07:10 1020 30.12 850 25.1 -0.1 31.9 77 -3.6 25.5
07:15 1020 30.12 850 25.1 -0.2 31.7 78 -3.6 25.5
07:20 1020 30.12 850 25.1 -0.2 31.6 78 -3.5 25.6
07:25 1020 30.12 850 25.1 -0.4 31.3 78 -3.8 25.2
07:30 1020 30.12 850 25.1 -0.1 31.7 77 -3.8 25.2
07:35 1020 30.12 850 25.1 -0.2 31.7 77 -3.7 25.4
07:40 1020 30.12 850 25.1 -0.2 31.6 78 -3.7 25.4
07:45 1021 30.15 850 25.1 -0.3 31.4 78 -3.8 25.2
07:50 1021 30.15 850 25.1 -0.5 31 79 -3.7 25.4
07:55 1021 30.15 850 25.1 -0.6 31 79 -3.7 25.4
08:00 1021 30.15 850 25.1 -0.6 30.9 79 -3.9 25
08:05 1021 30.15 850 25.1 0.1 32.1 75 -3.9 25
08:10 1021 30.15 850 25.1 0.5 32.9 73 -3.7 25.3
08:15 1021 30.15 850 25.1 0.4 32.7 75 -3.6 25.6
08:20 1021 30.15 850 25.1 0.4 32.7 75 -3.6 25.6
08:25 1021 30.15 850 25.1 0.6 33 75 -3.4 25.8
08:30 1021 30.15 850 25.1 1.1 33.9 72 -3.4 25.9
08:35 1021 30.15 850 25.1 1.3 34.3 72 -3.2 26.3
08:40 1021 30.15 850 25.1 1.3 34.3 72 -3.2 26.3
08:45 1021 30.15 850 25.1 1.4 34.6 70 -3.4 26
08:50 1021 30.15 850 25.1 1.7 35 69 -3.4 25.8
08:55 1021 30.15 850 25.1 2.5 36.5 66 -3.1 26.4
09:00 1021 30.15 850 25.1 2.7 36.8 65 -3.1 26.3
09:05 1021 30.15 850 25.1 2.3 36.1 68 -3 26.6
09:10 1021 30.15 850 25.1 1.8 35.2 70 -3.1 26.4
09:15 1021 30.15 850 25.1 1.7 35 69 -3.3 26
09:20 1021 30.15 850 25.1 2.2 35.9 68 -3.2 26.2
09:25 1021 30.15 850 25.1 2.5 36.4 67 -3 26.5
09:30 1021 30.15 850 25.1 2.6 36.7 67 -3 26.6
09:35 1021 30.15 850 25.1 3.1 37.6 66 -2.6 27.3
09:40 1021 30.15 850 25.1 3.6 38.5 63 -2.8 27
09:45 1021 30.15 850 25.1 3.8 38.9 63 -2.6 27.3
09:50 1021 30.15 850 25.1 4.3 39.7 60 -2.8 27
09:55 1021 30.15 850 25.1 4.3 39.7 61 -2.5 27.6
10:00 1021 30.15 850 25.1 4.6 40.3 61 -2.3 27.9
10:05 1021 30.15 850 25.1 4.9 40.7 62 -1.9 28.6
10:10 1021 30.15 850 25.1 5.7 42.3 57 -2 28.4
10:15 1021 30.15 850 25.1 6.3 43.4 54 -2.2 28
10:20 1021 30.15 850 25.1 7.1 44.7 52 -2.1 28.3
10:25 1021 30.15 850 25.1 7.4 45.2 52 -1.8 28.8
10:30 1021 30.15 851 25.13 7.8 46 47 -2.8 27
10:35 1021 30.15 851 25.13 6.9 44.5 48 -3.2 26.2
10:40 1021 30.15 851 25.13 6.7 44 49 -3.3 26.1
10:45 1021 30.15 851 25.13 7.5 45.5 46 -3.3 26
10:50 1021 30.15 851 25.13 7.9 46.3 45 -3.4 25.9
10:55 1021 30.15 851 25.13 7.8 46.1 45 -3.3 26.1
11:00 1021 30.15 851 25.13 7.4 45.3 46 -3.4 25.9
11:05 1021 30.15 850 25.1 7.8 46 44 -3.6 25.6
11:10 1021 30.15 851 25.13 8.2 46.8 47 -2.5 27.5
11:15 1021 30.15 850 25.1 8.2 46.8 44 -3.4 25.9
11:20 1021 30.15 850 25.1 8.4 47.2 44 -3.1 26.3
11:25 1021 30.15 850 25.1 8.9 47.9 42 -3.4 26
11:30 1021 30.15 850 25.1 8.9 48 42 -3.3 26
11:35 1021 30.15 850 25.1 9.1 48.5 39 -4.2 24.5
11:40 1021 30.15 850 25.1 9.6 49.3 39 -3.8 25.2
11:45 1021 30.15 850 25.1 9.5 49.1 38 -4.2 24.5
11:50 1021 30.15 850 25.1 8.6 47.5 37 -5.4 22.3
11:55 1021 30.15 850 25.1 8.3 46.9 39 -4.7 23.5
12:00 1021 30.15 850 25.1 9.1 48.3 37 -4.8 23.3
12:05 1021 30.15 850 25.1 9.7 49.5 36 -4.8 23.4
12:10 1021 30.15 850 25.1 10 50 36 -4.3 24.3
12:15 1021 30.15 850 25.1 10.3 50.5 34 -4.8 23.3
12:20 1021 30.15 850 25.1 11 51.8 33 -4.5 23.9
12:25 1021 30.15 850 25.1 11.4 52.5 34 -4 24.8
12:30 1021 30.15 850 25.1 11.6 52.8 34 -3.8 25.2
12:35 1021 30.15 850 25.1 11 51.9 35 -3.7 25.4
12:40 1021 30.15 850 25.1 10.9 51.6 35 -4.1 24.6
12:45 1021 30.15 850 25.1 11.6 52.8 35 -3.4 25.9
12:50 1021 30.15 850 25.1 11.5 52.6 35 -3.2 26.2
12:55 1021 30.15 850 25.1 12.1 53.8 35 -2.9 26.8
13:00 1021 30.15 850 25.1 12.4 54.3 34 -2.9 26.8
13:05 1020 30.12 850 25.1 12.5 54.6 35 -2.5 27.5
13:10 1020 30.12 850 25.1 12.6 54.7 34 -2.6 27.3
13:15 1020 30.12 850 25.1 12.8 55 33 -2.9 26.8
13:20 1020 30.12 850 25.1 12.6 54.7 34 -2.7 27.1
13:25 1020 30.12 849 25.07 13 55.3 32 -3.4 25.8
13:30 1020 30.12 849 25.07 13.4 56.2 32 -3 26.5
13:35 1020 30.12 849 25.07 13.2 55.8 33 -2.6 27.4
13:40 1020 30.12 849 25.07 13.6 56.5 31 -3.4 26
13:45 1020 30.12 849 25.07 14.2 57.6 29 -3.5 25.7
13:50 1020 30.12 849 25.07 14.1 57.3 29 -3.8 25.2
13:55 1020 30.12 849 25.07 14.4 58 27 -4.2 24.5
14:00 1020 30.12 849 25.07 14.3 57.7 26 -5 23.1
14:05 1020 30.12 849 25.07 14.7 58.4 26 -4.5 23.9
14:10 1020 30.12 849 25.07 14.9 58.7 26 -4.2 24.4
14:15 1020 30.12 849 25.07 14.9 58.9 26 -4.5 23.9
14:20 1019 30.09 849 25.07 14 57.1 29 -3.5 25.7
14:25 1019 30.09 849 25.07 13 55.4 31 -3.7 25.4
14:30 1019 30.09 849 25.07 13.5 56.3 31 -3.3 26.1
14:35 1019 30.09 848 25.04 13.3 55.9 30 -3.9 25
14:40 1019 30.09 848 25.04 13.8 56.8 28 -4.2 24.4
14:45 1019 30.09 848 25.04 14 57.3 26 -5 23
14:50 1019 30.09 848 25.04 14 57.3 26 -5.1 22.9
14:55 1019 30.09 848 25.04 13.8 56.8 31 -3.1 26.5
15:00 1019 30.09 848 25.04 13.4 56.2 30 -3.7 25.4
15:05 1019 30.09 848 25.04 13.3 55.9 28 -4.6 23.8
15:10 1019 30.09 848 25.04 12.7 54.8 29 -4.7 23.5
15:15 1019 30.09 848 25.04 13.2 55.8 29 -4.4 24.1
15:20 1019 30.09 848 25.04 14.2 57.6 30 -3.2 26.3
15:25 1019 30.09 848 25.04 14.2 57.6 31 -2.6 27.3
15:30 1019 30.09 848 25.04 14.6 58.3 31 -2.3 27.8
15:35 1019 30.09 848 25.04 15.4 59.8 27 -3.2 26.3
15:40 1019 30.09 848 25.04 15.3 59.6 28 -3 26.6
15:45 1019 30.09 848 25.04 15.4 59.7 29 -2.4 27.7
15:50 1019 30.09 848 25.04 15.3 59.5 30 -2.1 28.2
15:55 1019 30.09 848 25.04 15.4 59.7 27 -3.5 25.7
16:00 1019 30.09 848 25.04 15.5 59.9 28 -2.9 26.7
16:05 1019 30.09 848 25.04 14.8 58.7 29 -3 26.6
16:10 1019 30.09 848 25.04 14.2 57.5 29 -3.4 26
16:15 1019 30.09 848 25.04 14.9 58.8 29 -3.1 26.5
16:20 1019 30.09 848 25.04 14.9 58.7 29 -3.1 26.4
16:25 1019 30.09 848 25.04 15.4 59.7 27 -3.4 25.9
16:30 1019 30.09 848 25.04 14.4 58 30 -3 26.7
16:35 1019 30.09 848 25.04 13.6 56.4 30 -3.6 25.5
16:40 1019 30.09 848 25.04 13.6 56.4 30 -3.5 25.6
16:45 1019 30.09 848 25.04 14.2 57.5 30 -3.1 26.3
16:50 1019 30.09 848 25.04 14.7 58.5 29 -3.3 26.1
16:55 1019 30.09 848 25.04 14.9 58.9 28 -3.1 26.3
17:00 1019 30.09 848 25.04 14.4 57.9 29 -3.1 26.4
17:05 1019 30.09 848 25.04 13.9 57.1 29 -3.7 25.3
17:10 1019 30.09 848 25.04 14.6 58.3 29 -3.2 26.3
17:15 1019 30.09 848 25.04 15 58.9 28 -3.3 26.1
17:20 1019 30.09 848 25.04 14.7 58.5 28 -3.3 26.1
17:25 1019 30.09 848 25.04 14.8 58.6 28 -3.4 25.8
17:30 1019 30.09 848 25.04 14.4 57.9 29 -3.5 25.6
17:35 1019 30.09 848 25.04 14.4 57.9 29 -3.5 25.7
17:40 1019 30.09 848 25.04 14.5 58 28 -3.6 25.4
17:45 1019 30.09 848 25.04 14.2 57.6 29 -3.4 25.9
17:50 1019 30.09 848 25.04 14 57.2 30 -3.1 26.5
17:55 1019 30.09 848 25.04 12.8 55 41 0 32
18:00 1019 30.09 848 25.04 11.5 52.7 49 1.2 34.1
18:05 1019 30.09 848 25.04 10.4 50.7 54 1.5 34.8
18:10 1019 30.09 848 25.04 9.7 49.4 56 1.4 34.5
18:15 1019 30.09 848 25.04 9.2 48.5 57 1.2 34.1
18:20 1019 30.09 848 25.04 9 48.2 58 1.2 34.2
18:25 1019 30.09 848 25.04 8.6 47.5 60 1.2 34.2
18:30 1019 30.09 848 25.04 8.2 46.8 61 1.2 34.1
18:35 1019 30.09 848 25.04 8.1 46.6 60 0.9 33.6
18:40 1019 30.09 848 25.04 8 46.5 60 0.7 33.2
18:45 1019 30.09 848 25.04 8 46.3 61 0.9 33.6
18:50 1019 30.09 848 25.04 7.5 45.5 64 1.2 34.1
18:55 1019 30.09 848 25.04 7.1 44.7 66 1.1 33.9
19:00 1019 30.09 848 25.04 7 44.6 65 0.9 33.7
19:05 1019 30.09 848 25.04 7 44.7 64 0.8 33.5
19:10 1019 30.09 848 25.04 7.2 44.9 63 0.6 33
19:15 1019 30.09 848 25.04 7.2 44.9 65 1 33.7
19:20 1019 30.09 848 25.04 6.6 43.8 67 1 33.7
19:25 1019 30.09 848 25.04 6.2 43.2 68 0.9 33.6
19:30 1019 30.09 848 25.04 6.1 42.9 66 0.3 32.5
19:35 1019 30.09 848 25.04 6 42.8 67 0.3 32.6
19:40 1019 30.09 848 25.04 6.1 42.9 64 -0.3 31.5
19:45 1019 30.09 848 25.04 6.3 43.3 61 -0.6 31
19:50 1019 30.09 848 25.04 6.3 43.3 62 -0.5 31
19:55 1019 30.09 848 25.04 6.4 43.5 61 -0.5 31.1
20:00 1019 30.09 848 25.04 6.4 43.5 61 -0.6 30.9
20:05 1019 30.09 848 25.04 6.2 43.1 63 -0.4 31.4
20:10 1019 30.09 848 25.04 5.9 42.6 63 -0.6 30.9
20:15 1019 30.09 848 25.04 5.9 42.7 62 -0.7 30.7
20:20 1019 30.09 848 25.04 5.7 42.3 62 -1 30.3
20:25 1019 30.09 848 25.04 6.1 43 58 -1.5 29.4
20:30 1019 30.09 848 25.04 6.2 43.2 59 -1.1 30.1
20:35 1019 30.09 848 25.04 6.1 43 60 -1 30.2
20:40 1019 30.09 848 25.04 6.2 43.2 60 -1.1 30.1
20:45 1019 30.09 848 25.04 6.1 43.1 60 -0.9 30.4
20:50 1019 30.09 848 25.04 6.1 43 60 -1.1 30
20:55 1019 30.09 848 25.04 5.9 42.6 63 -0.6 30.9
21:00 1019 30.09 848 25.04 5.6 42.1 63 -0.8 30.6
21:05 1019 30.09 848 25.04 5.6 42.1 63 -0.9 30.3
21:10 1019 30.09 848 25.04 5.6 42.1 63 -0.9 30.4
21:15 1019 30.09 848 25.04 5.4 41.6 65 -0.7 30.8
21:20 1019 30.09 848 25.04 5.1 41.2 66 -0.7 30.7
21:25 1019 30.09 849 25.07 5 41 65 -1 30.2
21:30 1019 30.09 849 25.07 5.1 41.2 65 -1 30.2
21:35 1019 30.09 848 25.04 5.2 41.4 65 -0.9 30.4
21:40 1019 30.09 848 25.04 5 41 66 -0.9 30.4
21:45 1019 30.09 848 25.04 4.2 39.6 69 -1.1 30.1
21:50 1019 30.09 848 25.04 4 39.1 69 -1.2 29.8
21:55 1019 30.09 848 25.04 4 39.1 69 -1.2 29.8
22:00 1019 30.09 848 25.04 4.2 39.5 68 -1.2 29.8
22:05 1019 30.09 848 25.04 4.6 40.2 66 -1.3 29.7
22:10 1019 30.09 848 25.04 4.9 40.8 64 -1.3 29.7
22:15 1019 30.09 848 25.04 5 41.1 63 -1.3 29.7
22:20 1019 30.09 848 25.04 5 41 63 -1.4 29.5
22:25 1019 30.09 848 25.04 5.3 41.6 62 -1.3 29.7
22:30 1019 30.09 848 25.04 5.2 41.3 65 -0.8 30.6
22:35 1019 30.09 848 25.04 4 39.2 71 -0.7 30.7
22:40 1019 30.09 848 25.04 3.7 38.6 70 -1.3 29.7
22:45 1019 30.09 848 25.04 3.5 38.3 71 -1.2 29.9
22:50 1019 30.09 848 25.04 3.3 38 73 -1.1 30
22:55 1019 30.09 848 25.04 3 37.5 73 -1.3 29.7
23:00 1019 30.09 848 25.04 2.9 37.3 73 -1.5 29.4
23:05 1019 30.09 848 25.04 3.1 37.6 71 -1.6 29.2
23:10 1019 30.09 848 25.04 3.2 37.8 71 -1.5 29.4
23:15 1019 30.09 848 25.04 3 37.4 73 -1.4 29.4
23:20 1019 30.09 848 25.04 2.8 37.1 74 -1.4 29.5
23:25 1019 30.09 848 25.04 2.8 37 74 -1.4 29.5
23:30 1019 30.09 848 25.04 3 37.4 72 -1.6 29.1
23:35 1019 30.09 848 25.04 3.4 38.1 70 -1.5 29.3
23:40 1019 30.09 848 25.04 3.5 38.4 69 -1.5 29.3
23:45 1019 30.09 848 25.04 3.5 38.3 71 -1.3 29.7
23:50 1019 30.09 848 25.04 3.3 38 72 -1.3 29.7
23:55 1019 30.09 848 25.04 3.6 38.5 69 -1.5 29.3
24:00 1019 30.09 848 25.04 3.9 39 69 -1.3 29.6